• Join FlightAware (Why Join?)
  • Login
  • US Flag 
11:59PM EDT


 

Airport Tracker/Info


-or-


 

Live Flight TrackerFlight Track Log ✈ TAM3711 ✈ 12-May-2013 ✈ SBBR / BSB - SBSP / CGH

Flight Track Log - Related Links

Times and Time Zones

All times are in EDT time to prevent confusion due to time zone crossing. See the TAM3711 flight status page for this flight to view local times or setup timezone preferences in your user account.

Time Position Orientation Groundspeed Altitude Reporting Facility
EDT Latitude Longitude Course Direction KTS MPH feet Rate Location/Type
06:28AM -16.0590 -47.8660 115° Southeast 172 198 10,900  Level FlightAware
06:29AM -16.1760 -47.8890 191° South 362 417 13,900 2,940 Climbing FlightAware
06:30AM -16.2710 -47.8960 184° South 369 425 16,600 2,820 Climbing FlightAware
06:31AM -16.3620 -47.9020 184° South 373 429 18,900 2,520 Climbing FlightAware
06:32AM -16.4320 -47.9070 184° South 379 436 20,400 2,040 Climbing FlightAware
06:32AM -16.5140 -47.9120 183° South 390 449 21,800 1,680 Climbing FlightAware
06:33AM -16.6060 -47.9190 184° South 403 464 23,100 780 Climbing FlightAware
06:34AM -16.7160 -47.9250 183° South 405 466 23,400 1,140 Climbing FlightAware
06:35AM -16.8060 -47.9320 184° South 410 472 25,200 1,080 Climbing FlightAware
06:36AM -16.8870 -47.9370 183° South 410 472 25,200  Level FlightAware
06:37AM -16.9830 -47.9420 183° South 410 472 25,200  Level FlightAware
06:38AM -17.0640 -47.9460 183° South 410 472 25,200  Level FlightAware
06:38AM -17.1280 -47.9500 183° South 410 472 25,200 720 Level FlightAware
06:41AM -17.3248 -47.9123 170° South  Level Estimated
06:42AM -17.4135 -47.8953 170° South  Level Estimated
06:43AM -17.5023 -47.8783 170° South  Level Estimated
06:44AM -17.5910 -47.8612 170° South  Level Estimated
06:45AM -17.6798 -47.8441 170° South  Level Estimated
06:46AM -17.7686 -47.8270 170° South  Level Estimated
06:47AM -17.8573 -47.8099 170° South  Level Estimated
06:48AM -17.9461 -47.7928 170° South  Level Estimated
06:49AM -18.0348 -47.7757 170° South  Level Estimated
06:50AM -18.1236 -47.7585 170° South  Level Estimated
06:51AM -18.2123 -47.7413 170° South  Level Estimated
06:52AM -18.3011 -47.7242 170° South  Level Estimated
06:52AM -18.8200 -47.6880 170° South 401 461 36,000  Level FlightAware
06:53AM -18.3898 -47.7070 170° South  Level Estimated
06:53AM -18.8840 -47.6970 188° South 401 461 36,000  Level FlightAware
06:54AM -18.9770 -47.7110 188° South 401 461 36,000  Level FlightAware
06:55AM -19.0600 -47.7230 188° South 401 461 36,000  Level FlightAware
06:55AM -19.1190 -47.7320 188° South 402 463 36,000  Level FlightAware
06:56AM -19.1810 -47.7410 188° South 403 464 36,000  Level FlightAware
06:57AM -19.3090 -47.7600 188° South 406 467 36,000  Level FlightAware
06:58AM -19.3860 -47.7720 188° South 406 467 36,000  Level FlightAware
06:58AM -19.4800 -47.7860 188° South 405 466 36,000  Level FlightAware
06:59AM -19.5500 -47.7960 188° South 405 466 36,000  Level FlightAware
07:00AM -19.6460 -47.8110 188° South 405 466 36,000  Level FlightAware
07:01AM -19.7520 -47.8270 188° South 405 466 36,000  Level FlightAware
07:02AM -19.8350 -47.8390 188° South 406 467 36,000  Level FlightAware
07:02AM -19.9250 -47.8520 188° South 407 468 36,000  Level FlightAware
07:03AM -19.9990 -47.8640 189° South 408 470 36,000  Level FlightAware
07:04AM -20.0610 -47.8730 188° South 409 471 36,000  Level FlightAware
07:04AM -20.1360 -47.8840 188° South 409 471 36,000  Level FlightAware
07:05AM -20.2090 -47.8950 188° South 409 471 36,000  Level FlightAware
07:05AM -20.2650 -47.9040 189° South 409 471 36,000  Level FlightAware
07:06AM -20.3520 -47.9170 188° South 410 472 36,000  Level FlightAware
07:07AM -20.3990 -47.9240 188° South 410 472 36,000  Level FlightAware
07:09AM -20.5660 -47.8598 160° South  Level Estimated
07:09AM -20.6240 -47.9580 160° South 410 472 36,000  Level FlightAware
07:09AM -20.6990 -47.9690 188° South 412 474 36,000  Level FlightAware
07:10AM -20.7770 -47.9810 188° South 420 483 36,000  Level FlightAware
07:11AM -20.8550 -47.9930 188° South 421 484 36,000  Level FlightAware
07:12AM -21.0780 -48.0270 156° South 421 484 36,000  Level FlightAware
07:13AM -21.0173 -47.9162 156° South  Level Estimated
07:13AM -21.1640 -48.0400 188° South 423 487 36,000  Level FlightAware
07:14AM -21.2320 -48.0500 188° South 423 487 36,000  Level FlightAware
07:14AM -21.3000 -48.0610 189° South 424 488 36,000  Level FlightAware
07:15AM -21.3680 -48.0710 188° South 424 488 36,000  Level FlightAware
07:16AM -21.4550 -48.0840 188° South 424 488 36,000  Level FlightAware
07:16AM -21.5450 -48.0980 188° South 425 489 36,000  Level FlightAware
07:17AM -21.6230 -48.1100 188° South 426 490 36,000  Level FlightAware
07:18AM -21.7010 -48.1220 188° South 427 491 36,000  Level FlightAware
07:19AM -21.7890 -48.1330 187° South 433 498 36,000  Level FlightAware
07:19AM -21.8600 -48.1150 167° South 452 520 36,000  Level FlightAware
07:20AM -21.9590 -48.0620 154° Southeast 449 517 36,000  Level FlightAware
07:21AM -22.0270 -48.0260 154° Southeast 450 518 36,000 -120 Level FlightAware
07:21AM -22.0730 -48.0010 153° Southeast 451 519 35,900 -720 Descending FlightAware
07:22AM -22.1580 -47.9560 154° Southeast 447 514 35,200 -900 Descending FlightAware
07:22AM -22.2150 -47.9260 154° Southeast 446 513 34,800 -1,680 Descending FlightAware
07:23AM -22.3080 -47.8760 154° Southeast 452 520 33,000 -2,700 Descending FlightAware
07:24AM -22.3720 -47.8420 154° Southeast 460 529 31,000 -3,420 Descending FlightAware
07:24AM -22.4300 -47.8110 154° Southeast 463 533 29,300 -3,000 Descending FlightAware
07:25AM -22.5060 -47.7710 154° Southeast 454 522 27,500 -2,700 Descending FlightAware
07:26AM -22.5820 -47.7300 154° Southeast 445 512 25,700 -2,640 Descending FlightAware
07:26AM -22.6460 -47.6960 154° Southeast 438 504 24,200 -2,580 Descending FlightAware
07:27AM -22.7310 -47.6270 143° Southeast 424 488 21,900 -2,280 Descending FlightAware
07:28AM -22.8300 -47.5360 140° Southeast 405 466 19,500 -1,920 Descending FlightAware
07:29AM -22.8950 -47.4760 140° Southeast 399 459 18,300 -1,860 Descending FlightAware
07:30AM -22.9640 -47.4120 140° Southeast 383 441 16,600 -2,100 Descending FlightAware
07:30AM -23.0180 -47.3610 139° Southeast 382 440 15,200 -2,100 Descending FlightAware
07:31AM -23.0640 -47.3190 140° Southeast 367 422 14,000 -2,040 Descending FlightAware
07:32AM -23.1020 -47.2830 139° Southeast 367 422 13,000 -1,560 Descending FlightAware
07:33AM -23.1750 -47.2150 139° Southeast 356 410 11,700 -960 Descending FlightAware
07:33AM -23.2420 -47.1530 140° Southeast 356 410 11,200 -660 Descending FlightAware
07:34AM -23.2940 -47.1040 139° Southeast 354 407 10,700 -720 Descending FlightAware
07:35AM -23.3290 -47.0710 139° Southeast 352 405 10,400 -600 Descending FlightAware
07:35AM -23.3810 -47.0230 140° Southeast 311 358 10,000 -600 Descending FlightAware
07:36AM -23.4020 -47.0030 139° Southeast 307 353 9,800 -540 Descending FlightAware
07:36AM -23.4290 -46.9780 140° Southeast 308 354 9,600 -600 Descending FlightAware
07:37AM -23.4550 -46.9540 140° Southeast 305 351 9,300 -540 Descending FlightAware
07:37AM -23.4780 -46.9320 139° Southeast 302 348 9,200 -720 Descending FlightAware
07:37AM -23.5040 -46.9070 139° Southeast 304 350 8,800 -780 Descending FlightAware
07:39AM -23.5940 -46.8200 138° Southeast 268 308 7,800 -600 Descending FlightAware
07:39AM -23.6280 -46.7870 138° Southeast 271 312 7,600 -420 Descending FlightAware
07:40AM -23.6470 -46.7680 138° Southeast 269 310 7,400 -420 Descending FlightAware
07:40AM -23.6790 -46.7360 138° Southeast 257 296 7,200 -240 Descending FlightAware
07:41AM -23.6970 -46.7180 138° Southeast 235 270 7,200 -180 Level FlightAware
07:41AM -23.7160 -46.7000 139° Southeast 217 250 7,100 -540 Descending FlightAware
07:42AM -23.7750 -46.6590 148° Southeast 215 247 6,400 -600 Descending FlightAware
07:43AM -23.8020 -46.6320 138° Southeast 219 252 6,100 -600 Descending FlightAware
07:43AM -23.7970 -46.6010 80° East 213 245 5,800 -720 Descending FlightAware
07:44AM -23.7890 -46.5730 73° East 203 234 5,500 -720 Descending FlightAware
07:44AM -23.7740 -46.5570 44° Northeast 183 211 5,200 -600 Descending FlightAware
07:44AM -23.7730 -46.5560 42° Northeast 177 204 5,200 -360 Level FlightAware
07:45AM -23.7560 -46.5660 332° Northwest 155 178 5,000 -360 Descending FlightAware
07:45AM -23.7420 -46.5770 324° Northwest 146 168 4,900 -600 Descending FlightAware
07:46AM -23.7260 -46.5880 328° Northwest 132 152 4,500 -720 Descending FlightAware
07:46AM -23.7120 -46.5970 330° Northwest 128 147 4,200 -660 Descending FlightAware
07:47AM -23.6940 -46.6100 327° Northwest 126 145 3,800 -840 Descending FlightAware
07:47AM -23.6900 -46.6130 326° Northwest 129 148 3,600 -780 Descending FlightAware
07:47AM -23.6760 -46.6230 327° Northwest 126 145 3,300 -600 Descending FlightAware
07:48AM -23.6630 -46.6320 328° Northwest 126 145 3,100 -540 Descending FlightAware
07:48AM -23.6590 -46.6340 335° Northwest 129 148 3,000 -600 Descending FlightAware
07:48AM -23.6440 -46.6440 329° Northwest 128 147 2,700 -600 Descending FlightAware